Time;durP1;ratioP1;P1;durP2;ratioP2;P2;SDS_P1;SDS_P2;PMS_P1;PMS_P2;Temp;Humidity;BMP_temperature;BMP_pressure;BME280_temperature;BME280_humidity;BME280_pressure;Samples;Min_cycle;Max_cycle;Signal;HPM_P1;HPM_P2
2022/09/11 00:01:41;;;;;;;1.60;1.50;;;17.40;99.90;;;;;;5075122;28;20491;-60
2022/09/11 00:04:10;;;;;;;3.63;2.20;;;17.60;99.90;;;;;;5074883;28;20939;-60
2022/09/11 00:06:37;;;;;;;3.13;1.60;;;17.10;99.90;;;;;;5075303;28;20471;-59
2022/09/11 00:09:06;;;;;;;1.73;1.50;;;17.50;99.90;;;;;;5075083;28;20451;-60
2022/09/11 00:11:35;;;;;;;2.27;1.77;;;17.90;99.90;;;;;;5074912;28;20488;-60
2022/09/11 00:14:02;;;;;;;2.57;1.77;;;18.00;99.90;;;;;;5074814;28;20452;-59
2022/09/11 00:16:34;;;;;;;2.13;1.80;;;18.00;99.90;;;;;;5075094;28;20475;-60
2022/09/11 00:19:03;;;;;;;3.30;1.70;;;17.80;99.90;;;;;;5074654;28;20440;-60
2022/09/11 00:21:30;;;;;;;2.57;1.70;;;17.60;99.90;;;;;;5074567;28;20483;-60
2022/09/11 00:23:58;;;;;;;2.23;1.70;;;17.40;99.90;;;;;;5074647;28;20451;-60
2022/09/11 00:26:26;;;;;;;2.10;1.90;;;17.10;99.90;;;;;;5074781;28;20440;-59
2022/09/11 00:28:54;;;;;;;1.93;1.50;;;17.20;99.90;;;;;;5074716;28;20498;-59
2022/09/11 00:31:23;;;;;;;3.40;2.13;;;17.30;99.90;;;;;;5074323;28;20484;-60
2022/09/11 00:33:52;;;;;;;2.00;1.70;;;17.20;99.90;;;;;;5074287;28;20452;-60
2022/09/11 00:36:21;;;;;;;2.10;1.63;;;17.20;99.90;;;;;;5074504;28;20471;-60
2022/09/11 00:38:49;;;;;;;2.73;1.90;;;17.40;99.90;;;;;;5074687;28;20502;-60
2022/09/11 00:41:18;;;;;;;3.60;1.83;;;17.50;99.90;;;;;;5074318;28;20970;-59
2022/09/11 00:43:55;;;;;;;2.07;1.90;;;17.60;99.90;;;;;;5074131;28;20935;-60
2022/09/11 00:46:25;;;;;;;2.40;1.60;;;17.80;99.90;;;;;;5074324;28;20435;-59
2022/09/11 00:48:56;;;;;;;3.33;2.00;;;17.60;99.90;;;;;;5074005;28;20452;-59
2022/09/11 00:51:27;;;;;;;2.47;1.60;;;17.70;99.90;;;;;;5074270;28;20510;-59
2022/09/11 00:53:56;;;;;;;3.50;1.70;;;17.50;99.90;;;;;;5074296;28;20785;-59
2022/09/11 00:56:30;;;;;;;1.50;1.40;;;17.60;99.90;;;;;;5074146;28;20531;-60
2022/09/11 00:58:58;;;;;;;1.70;1.60;;;17.60;99.90;;;;;;5074173;28;20531;-60
2022/09/11 01:01:25;;;;;;;1.70;1.50;;;17.50;99.90;;;;;;5074037;28;20464;-60
2022/09/11 01:03:54;;;;;;;1.77;1.67;;;17.50;99.90;;;;;;5074012;28;20449;-59
2022/09/11 01:06:22;;;;;;;2.03;1.67;;;17.70;99.90;;;;;;5073711;28;20448;-59
2022/09/11 01:08:50;;;;;;;2.27;1.73;;;17.80;99.90;;;;;;5073810;28;20930;-60
2022/09/11 01:11:31;;;;;;;2.30;2.00;;;17.70;99.90;;;;;;5073792;28;20488;-59
2022/09/11 01:14:07;;;;;;;3.03;1.80;;;17.70;99.90;;;;;;5073909;28;20437;-60
2022/09/11 01:16:40;;;;;;;4.17;2.07;;;17.50;99.90;;;;;;5073574;28;20432;-60
2022/09/11 01:19:24;;;;;;;4.67;2.20;;;17.50;99.90;;;;;;5073818;28;20746;-60
2022/09/11 01:22:20;;;;;;;3.97;1.83;;;17.30;99.90;;;;;;5073525;28;20471;-59
2022/09/11 01:25:07;;;;;;;2.33;1.97;;;17.40;99.90;;;;;;5073398;28;20435;-60
2022/09/11 01:27:47;;;;;;;3.07;1.90;;;17.50;99.90;;;;;;5073684;28;20486;-59
2022/09/11 01:30:16;;;;;;;1.70;1.60;;;17.30;99.90;;;;;;5073314;28;20429;-60
2022/09/11 01:33:01;;;;;;;2.23;1.93;;;17.70;99.90;;;;;;5073678;28;20514;-60
2022/09/11 01:35:41;;;;;;;2.70;1.70;;;17.40;99.90;;;;;;5073474;28;20425;-60
2022/09/11 01:38:15;;;;;;;2.23;1.67;;;17.40;99.90;;;;;;5073738;28;20470;-60
2022/09/11 01:40:50;;;;;;;2.03;1.73;;;17.20;99.90;;;;;;5073342;28;20421;-60
2022/09/11 01:43:22;;;;;;;7.40;2.17;;;17.20;99.90;;;;;;5073591;28;20438;-60
2022/09/11 01:45:52;;;;;;;1.83;1.73;;;17.30;99.90;;;;;;5073464;28;20433;-60
2022/09/11 01:48:24;;;;;;;5.63;1.90;;;17.40;99.90;;;;;;5073532;28;20448;-59
2022/09/11 01:50:54;;;;;;;1.87;1.77;;;17.40;99.90;;;;;;5072774;28;20484;-60
2022/09/11 01:53:25;;;;;;;2.13;1.93;;;17.40;99.90;;;;;;5073048;28;20448;-60
2022/09/11 01:56:01;;;;;;;2.27;1.70;;;17.50;99.90;;;;;;5073261;28;20455;-60
2022/09/11 01:58:31;;;;;;;3.13;1.90;;;17.10;99.90;;;;;;5072662;28;20837;-60
2022/09/11 02:01:05;;;;;;;3.20;1.93;;;17.00;99.90;;;;;;5072843;28;20465;-59
2022/09/11 02:03:36;;;;;;;2.87;2.00;;;17.00;99.90;;;;;;5073391;28;20436;-60
2022/09/11 02:06:07;;;;;;;2.50;1.80;;;17.00;99.90;;;;;;5073272;28;20424;-60
2022/09/11 02:08:43;;;;;;;2.20;1.97;;;17.30;99.90;;;;;;5073059;28;20523;-60
2022/09/11 02:11:12;;;;;;;2.20;1.90;;;17.10;99.90;;;;;;5073193;28;20577;-60
2022/09/11 02:13:50;;;;;;;2.60;1.93;;;17.30;99.90;;;;;;5073142;28;20451;-60
2022/09/11 02:16:26;;;;;;;1.97;1.80;;;17.30;99.90;;;;;;5072890;28;20435;-59
2022/09/11 02:18:59;;;;;;;3.83;2.03;;;17.00;99.90;;;;;;5072897;28;20413;-60
2022/09/11 02:21:27;;;;;;;1.90;1.80;;;17.10;99.90;;;;;;5072894;28;20466;-59
2022/09/11 02:23:55;;;;;;;2.20;2.00;;;17.10;99.90;;;;;;5073399;28;20509;-60
2022/09/11 02:26:24;;;;;;;2.40;2.17;;;17.20;99.90;;;;;;5073072;28;20448;-60
2022/09/11 02:28:53;;;;;;;2.37;2.17;;;17.40;99.90;;;;;;5073042;28;20544;-60
2022/09/11 02:31:22;;;;;;;2.50;2.30;;;17.00;99.90;;;;;;5072986;28;20488;-60
2022/09/11 02:33:50;;;;;;;2.23;1.80;;;17.30;99.90;;;;;;5072603;28;20860;-60
2022/09/11 02:36:35;;;;;;;2.70;2.20;;;17.10;99.90;;;;;;5072598;28;20523;-60
2022/09/11 02:39:15;;;;;;;2.00;1.70;;;16.90;99.90;;;;;;5072852;28;20433;-60
2022/09/11 02:41:51;;;;;;;2.63;2.07;;;16.80;99.90;;;;;;5072815;28;20482;-60
2022/09/11 02:44:28;;;;;;;6.30;2.77;;;16.90;99.90;;;;;;5072663;28;20822;-60
2022/09/11 02:47:09;;;;;;;2.20;2.00;;;16.60;99.90;;;;;;5072911;28;20429;-60
2022/09/11 02:49:45;;;;;;;3.40;2.37;;;16.90;99.90;;;;;;5072632;28;20480;-59
2022/09/11 02:52:21;;;;;;;2.80;2.40;;;17.00;99.90;;;;;;5072641;28;20511;-60
2022/09/11 02:54:55;;;;;;;2.47;2.03;;;16.90;99.90;;;;;;5072707;28;20439;-60
2022/09/11 02:57:28;;;;;;;3.87;2.60;;;16.80;99.90;;;;;;5072575;28;20876;-59
2022/09/11 02:59:59;;;;;;;2.10;1.90;;;16.80;99.90;;;;;;5072769;28;20440;-60
2022/09/11 03:02:28;;;;;;;3.10;2.17;;;16.80;99.90;;;;;;5072424;28;20825;-60
2022/09/11 03:04:56;;;;;;;2.50;2.30;;;17.00;99.90;;;;;;5072605;28;20448;-60
2022/09/11 03:07:24;;;;;;;6.20;2.67;;;17.20;99.90;;;;;;5072581;28;20498;-59
2022/09/11 03:09:51;;;;;;;2.70;2.50;;;17.20;99.90;;;;;;5074247;28;20474;-59
2022/09/11 03:12:19;;;;;;;5.07;2.00;;;17.40;99.90;;;;;;5076093;28;20492;-59
2022/09/11 03:14:47;;;;;;;2.87;2.13;;;17.40;99.90;;;;;;5076031;28;20444;-59
2022/09/11 03:17:16;;;;;;;3.43;2.33;;;17.20;99.90;;;;;;5075849;28;20456;-60
2022/09/11 03:19:43;;;;;;;3.40;2.13;;;17.70;99.90;;;;;;5075689;28;20451;-60
2022/09/11 03:22:10;;;;;;;2.20;1.97;;;17.50;99.90;;;;;;5075868;28;20469;-60
2022/09/11 03:24:38;;;;;;;2.80;2.23;;;17.30;99.90;;;;;;5076042;28;20454;-60
2022/09/11 03:27:05;;;;;;;4.73;2.37;;;17.30;99.90;;;;;;5075619;28;20429;-60
2022/09/11 03:29:32;;;;;;;4.80;2.40;;;17.50;99.90;;;;;;5075785;28;20452;-60
2022/09/11 03:32:00;;;;;;;4.03;2.37;;;17.60;99.90;;;;;;5075345;28;20489;-60
2022/09/11 03:34:28;;;;;;;2.73;2.40;;;17.40;99.90;;;;;;5075439;28;20453;-60
2022/09/11 03:36:55;;;;;;;2.10;1.90;;;17.40;99.90;;;;;;5075355;28;20448;-59
2022/09/11 03:39:23;;;;;;;2.70;2.50;;;17.80;99.90;;;;;;5075436;28;20962;-60
2022/09/11 03:41:50;;;;;;;4.47;3.20;;;18.00;99.90;;;;;;5075919;28;20468;-60
2022/09/11 03:44:17;;;;;;;3.10;2.80;;;18.00;99.90;;;;;;5075543;28;20444;-60
2022/09/11 03:46:44;;;;;;;3.63;2.80;;;17.70;99.90;;;;;;5075241;28;20449;-60
2022/09/11 03:49:11;;;;;;;3.47;3.17;;;17.50;99.90;;;;;;5075368;28;20547;-60
2022/09/11 03:51:40;;;;;;;3.50;3.20;;;17.70;99.90;;;;;;5075457;28;20575;-60
2022/09/11 03:54:07;;;;;;;5.00;2.97;;;17.90;99.90;;;;;;5075298;28;20452;-60
2022/09/11 03:56:34;;;;;;;6.90;3.53;;;17.90;99.90;;;;;;5075264;28;20490;-60
2022/09/11 03:59:01;;;;;;;4.60;3.80;;;18.00;99.90;;;;;;5075223;28;20533;-60
2022/09/11 04:01:28;;;;;;;5.23;3.57;;;17.90;99.90;;;;;;5075137;28;20464;-60
2022/09/11 04:03:56;;;;;;;4.90;3.30;;;17.80;99.90;;;;;;5075055;28;20448;-60
2022/09/11 04:06:23;;;;;;;3.53;3.20;;;17.70;99.90;;;;;;5075119;28;20463;-60
2022/09/11 04:08:51;;;;;;;3.77;3.47;;;17.90;99.90;;;;;;5075156;28;20531;-60
2022/09/11 04:11:18;;;;;;;3.40;3.00;;;17.70;99.90;;;;;;5075027;28;20472;-60
2022/09/11 04:13:46;;;;;;;3.20;2.90;;;17.90;99.90;;;;;;5074670;28;20448;-60
2022/09/11 04:16:15;;;;;;;3.83;3.30;;;17.70;99.90;;;;;;5074861;28;20452;-60
2022/09/11 04:18:44;;;;;;;3.40;3.10;;;17.90;99.90;;;;;;5074801;28;20443;-60
2022/09/11 04:21:14;;;;;;;3.43;3.13;;;17.70;99.90;;;;;;5074355;28;20465;-60
2022/09/11 04:23:41;;;;;;;4.50;3.40;;;17.60;99.90;;;;;;5074831;28;20462;-60
2022/09/11 04:26:16;;;;;;;9.87;4.47;;;17.30;99.90;;;;;;5074888;28;20446;-60
2022/09/11 04:28:43;;;;;;;3.70;3.27;;;17.30;99.90;;;;;;5075156;28;20431;-60
2022/09/11 04:31:11;;;;;;;4.20;3.80;;;17.50;99.90;;;;;;5074180;28;20472;-60
2022/09/11 04:33:38;;;;;;;4.40;3.90;;;17.40;99.90;;;;;;5074254;28;20511;-60
2022/09/11 04:36:07;;;;;;;4.27;3.93;;;17.50;99.90;;;;;;5074400;28;20965;-60
2022/09/11 04:38:35;;;;;;;3.07;2.70;;;17.50;99.90;;;;;;5074179;28;20452;-60
2022/09/11 04:41:02;;;;;;;8.47;3.97;;;17.50;99.90;;;;;;5074349;28;20472;-60
2022/09/11 04:43:31;;;;;;;3.73;3.33;;;17.30;99.90;;;;;;5074596;28;20424;-60
2022/09/11 04:46:02;;;;;;;8.93;4.07;;;17.50;99.90;;;;;;5074029;28;20463;-59
2022/09/11 04:48:30;;;;;;;3.93;3.60;;;17.70;99.90;;;;;;5073987;28;20451;-60
2022/09/11 04:51:02;;;;;;;7.23;3.93;;;17.60;99.90;;;;;;5073774;28;20570;-60
2022/09/11 04:53:30;;;;;;;4.47;3.63;;;17.60;99.90;;;;;;5074204;28;20901;-60
2022/09/11 04:56:06;;;;;;;4.00;3.70;;;17.50;99.90;;;;;;5074080;28;20460;-60
2022/09/11 04:58:35;;;;;;;5.60;4.53;;;17.40;99.90;;;;;;5074068;28;20451;-60
2022/09/11 05:01:05;;;;;;;4.40;4.00;;;17.20;99.90;;;;;;5073857;28;20567;-60
2022/09/11 05:03:32;;;;;;;7.07;4.77;;;17.30;99.90;;;;;;5073792;28;20436;-60
2022/09/11 05:06:03;;;;;;;4.57;4.17;;;17.40;99.90;;;;;;5073952;28;20440;-60
2022/09/11 05:08:31;;;;;;;4.80;4.40;;;17.40;99.90;;;;;;5073977;28;20456;-59
2022/09/11 05:10:59;;;;;;;5.10;4.10;;;17.40;99.90;;;;;;5073826;28;20473;-59
2022/09/11 05:13:26;;;;;;;6.17;4.37;;;17.30;99.90;;;;;;5073770;28;20529;-60
2022/09/11 05:16:01;;;;;;;5.37;4.50;;;17.30;99.90;;;;;;5073696;28;20452;-60
2022/09/11 05:18:28;;;;;;;4.97;3.80;;;17.30;99.90;;;;;;5073521;28;20409;-60
2022/09/11 05:21:00;;;;;;;5.33;4.07;;;17.20;99.90;;;;;;5073746;28;20522;-60
2022/09/11 05:23:28;;;;;;;4.77;4.37;;;17.30;99.90;;;;;;5073408;28;20900;-60
2022/09/11 05:25:57;;;;;;;4.10;3.80;;;17.30;99.90;;;;;;5073290;28;20452;-60
2022/09/11 05:28:26;;;;;;;4.93;4.53;;;17.40;99.90;;;;;;5073426;28;20451;-60
2022/09/11 05:30:55;;;;;;;3.77;3.47;;;17.40;99.90;;;;;;5073386;28;20518;-60
2022/09/11 05:33:23;;;;;;;4.43;4.00;;;17.40;99.90;;;;;;5072577;28;20471;-60
2022/09/11 05:35:51;;;;;;;5.47;4.30;;;17.50;99.90;;;;;;5073099;28;20474;-60
2022/09/11 05:38:18;;;;;;;5.17;4.47;;;17.60;99.90;;;;;;5073303;28;20849;-60
2022/09/11 05:40:47;;;;;;;5.00;4.40;;;17.50;99.90;;;;;;5072956;28;20452;-60
2022/09/11 05:43:14;;;;;;;4.63;3.90;;;17.40;99.90;;;;;;5073464;28;20486;-60
2022/09/11 05:45:41;;;;;;;5.00;4.60;;;17.40;99.90;;;;;;5073510;28;20448;-60
2022/09/11 05:48:11;;;;;;;6.60;4.83;;;17.40;99.90;;;;;;5072978;28;20543;-60
2022/09/11 05:50:38;;;;;;;5.73;4.20;;;17.40;99.90;;;;;;5072764;28;20520;-59
2022/09/11 05:53:05;;;;;;;5.80;4.40;;;17.60;99.90;;;;;;5073344;28;20494;-60
2022/09/11 05:55:34;;;;;;;4.60;4.20;;;17.40;99.90;;;;;;5073237;28;20448;-60
2022/09/11 05:58:01;;;;;;;5.70;4.00;;;17.70;99.90;;;;;;5073277;28;20527;-60
2022/09/11 06:00:29;;;;;;;8.63;4.37;;;17.70;99.90;;;;;;5072985;28;20498;-60
2022/09/11 06:02:57;;;;;;;6.07;4.87;;;17.80;99.90;;;;;;5073162;28;20551;-60
2022/09/11 06:05:26;;;;;;;6.70;5.07;;;17.60;99.90;;;;;;5073175;28;20448;-60
2022/09/11 06:07:54;;;;;;;5.33;4.53;;;17.40;99.90;;;;;;5072995;28;20459;-60
2022/09/11 06:10:21;;;;;;;5.50;5.00;;;17.10;99.90;;;;;;5072919;28;20802;-60
2022/09/11 06:12:48;;;;;;;5.03;4.53;;;17.20;99.90;;;;;;5073051;28;20483;-60
2022/09/11 06:15:15;;;;;;;5.40;4.90;;;17.40;99.90;;;;;;5072839;28;20448;-60
2022/09/11 06:17:43;;;;;;;5.73;4.70;;;17.90;99.90;;;;;;5073218;28;20478;-60
2022/09/11 06:20:11;;;;;;;4.67;3.10;;;17.70;99.90;;;;;;5073016;28;20543;-60
2022/09/11 06:22:39;;;;;;;4.33;3.63;;;17.70;99.90;;;;;;5072623;28;21009;-60
2022/09/11 06:25:07;;;;;;;6.40;5.70;;;17.80;99.90;;;;;;5072959;28;20452;-60
2022/09/11 06:27:35;;;;;;;6.10;5.50;;;17.70;99.90;;;;;;5072576;28;20450;-61
2022/09/11 06:30:02;;;;;;;6.90;5.10;;;17.90;99.90;;;;;;5072975;28;20449;-60
2022/09/11 06:32:29;;;;;;;5.57;5.13;;;18.10;99.90;;;;;;5072559;28;20487;-60
2022/09/11 06:34:57;;;;;;;5.00;4.50;;;18.10;99.90;;;;;;5072739;28;20452;-60
2022/09/11 06:37:24;;;;;;;7.23;4.87;;;18.00;99.90;;;;;;5072862;28;20455;-60
2022/09/11 06:39:53;;;;;;;5.33;4.83;;;18.00;99.90;;;;;;5072622;28;20484;-60
2022/09/11 06:42:20;;;;;;;6.27;5.23;;;18.00;99.90;;;;;;5072756;28;20977;-60
2022/09/11 06:44:50;;;;;;;6.17;4.90;;;18.10;99.90;;;;;;5076299;28;20542;-60
2022/09/11 06:47:17;;;;;;;4.90;4.50;;;18.00;99.90;;;;;;5076638;28;20480;-59
2022/09/11 06:49:44;;;;;;;4.00;3.50;;;18.10;99.90;;;;;;5076071;28;20480;-59
2022/09/11 06:52:11;;;;;;;5.70;5.20;;;18.40;99.90;;;;;;5076080;28;20469;-60
2022/09/11 06:54:39;;;;;;;9.07;6.17;;;18.50;99.90;;;;;;5076611;28;20455;-60
2022/09/11 06:57:07;;;;;;;6.13;5.60;;;18.50;99.90;;;;;;5076169;28;20551;-60
2022/09/11 06:59:34;;;;;;;4.13;3.80;;;18.50;99.90;;;;;;5076037;28;20784;-60
2022/09/11 07:02:02;;;;;;;5.47;5.07;;;18.40;99.90;;;;;;5076080;28;20474;-60
2022/09/11 07:04:29;;;;;;;5.27;4.27;;;18.50;99.90;;;;;;5076319;28;20459;-60
2022/09/11 07:06:56;;;;;;;6.30;5.50;;;18.50;99.90;;;;;;5076146;28;20816;-60
2022/09/11 07:09:23;;;;;;;7.90;6.00;;;18.30;99.90;;;;;;5076181;28;20530;-60
2022/09/11 07:11:50;;;;;;;5.83;5.33;;;18.20;99.90;;;;;;5076240;28;20482;-60
2022/09/11 07:14:20;;;;;;;7.17;5.30;;;17.80;99.90;;;;;;5075769;28;20476;-60
2022/09/11 07:16:49;;;;;;;6.63;5.47;;;18.00;99.90;;;;;;5075701;28;20456;-60
2022/09/11 07:19:17;;;;;;;6.20;5.50;;;17.90;99.90;;;;;;5075817;28;21000;-60
2022/09/11 07:21:44;;;;;;;4.93;4.30;;;17.90;99.90;;;;;;5075619;28;20468;-60
2022/09/11 07:24:11;;;;;;;5.20;4.80;;;18.10;99.90;;;;;;5075579;28;20961;-60
2022/09/11 07:26:38;;;;;;;6.10;5.60;;;18.10;99.90;;;;;;5075728;28;20456;-60
2022/09/11 07:29:06;;;;;;;5.87;5.47;;;17.90;99.90;;;;;;5075548;28;20444;-60
2022/09/11 07:31:34;;;;;;;6.40;5.03;;;17.90;99.90;;;;;;5075422;28;20813;-60
2022/09/11 07:34:02;;;;;;;5.63;5.13;;;18.10;99.90;;;;;;5075491;28;20860;-60
2022/09/11 07:36:31;;;;;;;6.43;5.80;;;18.40;99.90;;;;;;5075372;28;20862;-60
2022/09/11 07:38:59;;;;;;;6.20;5.40;;;18.30;99.90;;;;;;5075507;28;20440;-59
2022/09/11 07:41:30;;;;;;;7.40;5.53;;;18.10;99.90;;;;;;5075518;28;20828;-60
2022/09/11 07:43:59;;;;;;;6.40;5.80;;;18.30;99.90;;;;;;5075450;28;20433;-60
2022/09/11 07:46:27;;;;;;;7.60;6.43;;;18.10;99.90;;;;;;5075528;28;20475;-60
2022/09/11 07:48:56;;;;;;;6.27;5.63;;;18.10;99.90;;;;;;5074999;28;20535;-59
2022/09/11 07:51:25;;;;;;;7.37;5.67;;;18.40;99.90;;;;;;5075369;28;20827;-60
2022/09/11 07:53:53;;;;;;;7.60;6.83;;;18.50;99.90;;;;;;5075312;28;20499;-60
2022/09/11 07:56:22;;;;;;;7.23;6.00;;;18.20;99.90;;;;;;5074472;28;20543;-60
2022/09/11 07:58:51;;;;;;;5.23;4.83;;;18.40;99.90;;;;;;5075106;28;20452;-59
2022/09/11 08:01:20;;;;;;;6.50;5.90;;;18.60;99.90;;;;;;5075173;28;20473;-60
2022/09/11 08:03:48;;;;;;;8.17;6.33;;;18.40;99.90;;;;;;5074827;28;20454;-59
2022/09/11 08:06:18;;;;;;;6.90;6.30;;;18.10;99.90;;;;;;5074844;28;20444;-60
2022/09/11 08:08:46;;;;;;;6.10;5.47;;;18.30;99.90;;;;;;5074922;28;20996;-60
2022/09/11 08:11:16;;;;;;;6.63;5.80;;;18.30;99.90;;;;;;5074729;28;20480;-60
2022/09/11 08:13:49;;;;;;;6.80;5.40;;;18.70;99.90;;;;;;5074684;28;20514;-60
2022/09/11 08:16:17;;;;;;;5.90;5.30;;;18.60;99.90;;;;;;5074690;28;20455;-60
2022/09/11 08:18:44;;;;;;;7.03;6.30;;;18.90;99.90;;;;;;5074709;28;20450;-60
2022/09/11 08:21:11;;;;;;;6.90;5.67;;;18.70;99.90;;;;;;5074483;28;20479;-60
2022/09/11 08:23:42;;;;;;;6.23;5.63;;;18.80;99.90;;;;;;5074489;28;20474;-60
2022/09/11 08:26:11;;;;;;;5.00;4.60;;;19.10;99.90;;;;;;5075004;28;20431;-60
2022/09/11 08:28:41;;;;;;;6.90;6.30;;;19.50;99.90;;;;;;5074536;28;20445;-60
2022/09/11 08:31:14;;;;;;;4.17;3.87;;;19.70;99.90;;;;;;5074307;28;20463;-59
2022/09/11 08:33:41;;;;;;;8.33;5.70;;;19.60;99.90;;;;;;5074489;28;20990;-60
2022/09/11 08:36:10;;;;;;;6.87;6.27;;;19.70;99.90;;;;;;5074550;28;20444;-60
2022/09/11 08:38:38;;;;;;;6.77;5.77;;;19.90;99.90;;;;;;5074093;28;20432;-60
2022/09/11 08:41:18;;;;;;;5.37;4.97;;;19.90;99.90;;;;;;5073982;28;21061;-60
2022/09/11 08:43:49;;;;;;;7.93;6.43;;;19.40;99.90;;;;;;5074086;28;20432;-60
2022/09/11 08:46:23;;;;;;;8.37;7.20;;;19.20;99.90;;;;;;5074435;28;20436;-60
2022/09/11 08:48:57;;;;;;;7.30;6.50;;;18.70;99.90;;;;;;5074348;28;20432;-60
2022/09/11 08:51:25;;;;;;;6.70;6.10;;;18.60;99.90;;;;;;5074212;28;20490;-59
2022/09/11 08:53:56;;;;;;;10.00;6.57;;;18.40;99.90;;;;;;5074038;28;20484;-60
2022/09/11 08:56:28;;;;;;;6.40;5.87;;;18.40;99.90;;;;;;5074212;28;20531;-60
2022/09/11 08:59:18;;;;;;;7.77;6.60;;;18.60;99.90;;;;;;5073808;28;20511;-59
2022/09/11 09:01:54;;;;;;;8.00;6.60;;;19.40;99.90;;;;;;5074311;28;20464;-60
2022/09/11 09:04:41;;;;;;;5.60;5.10;;;19.90;99.90;;;;;;5074033;28;20887;-60
2022/09/11 09:07:19;;;;;;;8.50;5.87;;;20.80;99.90;;;;;;5073910;28;20518;-60
2022/09/11 09:09:54;;;;;;;6.07;5.50;;;21.70;99.90;;;;;;5073713;28;20413;-60
2022/09/11 09:12:32;;;;;;;7.27;5.97;;;22.30;99.90;;;;;;5073831;28;20578;-60
2022/09/11 09:15:17;;;;;;;7.47;5.57;;;22.50;99.90;;;;;;5073701;28;20567;-60
2022/09/11 09:17:49;;;;;;;5.47;4.97;;;21.60;99.90;;;;;;5073515;28;20429;-60
2022/09/11 09:20:21;;;;;;;7.13;5.63;;;21.60;99.90;;;;;;5073855;28;20436;-60
2022/09/11 09:22:53;;;;;;;4.37;4.07;;;22.00;99.90;;;;;;5073566;28;20464;-60
2022/09/11 09:25:22;;;;;;;5.20;4.80;;;22.70;99.90;;;;;;5073331;28;20440;-60
2022/09/11 09:27:56;;;;;;;4.90;4.50;;;22.40;99.90;;;;;;5073545;28;20448;-60
2022/09/11 09:30:26;;;;;;;4.47;4.17;;;22.20;99.90;;;;;;5073696;28;20425;-60
2022/09/11 09:32:57;;;;;;;5.27;4.87;;;22.40;99.90;;;;;;5073044;28;20472;-60
2022/09/11 09:35:30;;;;;;;4.13;3.80;;;22.30;99.90;;;;;;5073184;28;20904;-60
2022/09/11 09:37:57;;;;;;;5.20;4.80;;;22.10;99.90;;;;;;5073153;28;20456;-59
2022/09/11 09:40:26;;;;;;;5.37;4.87;;;21.40;99.90;;;;;;5073251;28;20445;-59
2022/09/11 09:43:14;;;;;;;5.83;5.27;;;21.30;99.90;;;;;;5073488;28;20472;-59
2022/09/11 09:45:50;;;;;;;5.23;4.83;;;21.30;99.90;;;;;;5073073;28;20788;-59
2022/09/11 09:48:18;;;;;;;4.23;3.93;;;21.40;99.90;;;;;;5073405;28;20440;-59
2022/09/11 09:50:45;;;;;;;6.77;5.40;;;21.50;99.90;;;;;;5071718;28;20479;-59
2022/09/11 09:53:21;;;;;;;5.90;5.23;;;21.40;99.90;;;;;;5072937;28;20448;-59
2022/09/11 09:55:54;;;;;;;3.93;3.67;;;21.10;99.90;;;;;;5073132;28;20435;-59
2022/09/11 09:58:25;;;;;;;7.73;5.23;;;21.20;99.90;;;;;;5072772;28;20492;-59
2022/09/11 10:00:52;;;;;;;6.90;6.27;;;20.70;99.90;;;;;;5072863;28;20468;-59
2022/09/11 10:03:22;;;;;;;5.03;4.57;;;20.40;99.90;;;;;;5073002;28;20441;-59
2022/09/11 10:05:52;;;;;;;6.23;5.73;;;20.90;99.90;;;;;;5073073;28;20454;-59
2022/09/11 10:08:32;;;;;;;5.20;4.70;;;21.10;99.90;;;;;;5072759;28;20452;-60
2022/09/11 10:11:01;;;;;;;4.83;4.43;;;21.50;99.90;;;;;;5072974;28;20957;-59
2022/09/11 10:13:32;;;;;;;5.40;4.73;;;21.80;99.90;;;;;;5072813;28;21001;-59
2022/09/11 10:16:02;;;;;;;5.50;5.00;;;21.90;99.90;;;;;;5073010;28;20447;-59
2022/09/11 10:18:42;;;;;;;5.70;5.20;;;21.80;99.90;;;;;;5074144;28;20953;-60
2022/09/11 10:21:32;;;;;;;8.53;6.07;;;21.50;99.90;;;;;;5076977;28;20525;-59
2022/09/11 10:24:02;;;;;;;5.77;5.23;;;21.20;99.90;;;;;;5072927;28;20502;-59
2022/09/11 10:26:33;;;;;;;6.70;5.93;;;21.20;99.90;;;;;;5076635;28;20452;-59
2022/09/11 10:29:08;;;;;;;6.00;5.50;;;21.10;99.90;;;;;;5076889;28;20420;-59
2022/09/11 10:31:39;;;;;;;6.13;5.67;;;21.20;99.90;;;;;;5076972;28;20463;-59
2022/09/11 10:34:14;;;;;;;9.33;6.20;;;21.40;99.90;;;;;;5076844;28;20479;-59
2022/09/11 10:36:52;;;;;;;7.17;6.40;;;21.30;99.90;;;;;;5076528;28;20486;-59
2022/09/11 10:39:21;;;;;;;6.70;6.10;;;21.30;99.90;;;;;;5076466;28;20913;-59
2022/09/11 10:41:49;;;;;;;6.57;6.07;;;21.30;99.90;;;;;;5076927;28;20480;-59
2022/09/11 10:44:20;;;;;;;6.23;5.73;;;21.10;99.90;;;;;;5076232;28;20949;-59
2022/09/11 10:47:03;;;;;;;4.60;4.30;;;21.40;99.90;;;;;;5076644;28;20437;-59
2022/09/11 10:49:32;;;;;;;6.80;5.97;;;22.00;99.90;;;;;;5076030;28;20468;-58
2022/09/11 10:52:16;;;;;;;7.90;7.20;;;22.60;99.90;;;;;;5076544;28;20517;-59
2022/09/11 10:54:59;;;;;;;6.80;6.10;;;22.50;99.90;;;;;;5076467;28;20804;-59
2022/09/11 10:57:30;;;;;;;7.40;6.80;;;23.40;99.90;;;;;;5076261;28;20840;-59
2022/09/11 11:00:07;;;;;;;7.70;6.60;;;23.00;99.90;;;;;;5076290;28;20456;-59
2022/09/11 11:02:39;;;;;;;7.10;6.40;;;23.10;99.90;;;;;;5075901;28;20959;-59
2022/09/11 11:05:14;;;;;;;5.50;5.10;;;22.90;99.90;;;;;;5076133;28;20424;-59
2022/09/11 11:08:18;;;;;;;6.00;5.40;;;22.90;99.90;;;;;;5075901;28;20431;-59
2022/09/11 11:10:59;;;;;;;6.07;5.47;;;23.20;99.90;;;;;;5075691;28;20431;-59
2022/09/11 11:13:44;;;;;;;9.60;4.93;;;23.20;99.90;;;;;;5076038;28;20918;-59
2022/09/11 11:16:20;;;;;;;4.93;3.87;;;23.10;99.90;;;;;;5076163;28;20483;-59
2022/09/11 11:19:06;;;;;;;5.00;4.50;;;23.20;99.90;;;;;;5076057;28;20429;-59
2022/09/11 11:21:52;;;;;;;4.80;4.30;;;23.00;99.90;;;;;;5075607;28;20464;-59
2022/09/11 11:24:32;;;;;;;5.63;5.13;;;22.80;99.90;;;;;;5075486;28;20429;-59
2022/09/11 11:27:09;;;;;;;5.90;5.40;;;22.80;99.90;;;;;;5075666;28;20438;-59
2022/09/11 11:29:55;;;;;;;8.63;5.53;;;22.30;99.90;;;;;;5074311;28;20435;-59
2022/09/11 11:32:49;;;;;;;5.90;5.50;;;22.50;99.90;;;;;;5075839;28;20460;-59
2022/09/11 11:35:21;;;;;;;4.20;3.90;;;22.70;99.90;;;;;;5062564;28;20529;-59
2022/09/11 11:37:50;;;;;;;8.57;5.67;;;23.30;99.90;;;;;;5075859;28;20528;-59
2022/09/11 11:40:25;;;;;;;4.77;4.37;;;24.30;99.90;;;;;;5075288;28;20448;-60
2022/09/11 11:42:54;;;;;;;6.00;5.50;;;;;;;;;;5075713;28;20482;-59
2022/09/11 11:45:25;;;;;;;4.57;4.27;;;25.60;99.90;;;;;;5075198;28;20444;-59
2022/09/11 11:47:54;;;;;;;5.50;5.00;;;26.10;99.90;;;;;;5075705;28;20429;-59
2022/09/11 11:50:27;;;;;;;6.33;4.93;;;26.00;99.90;;;;;;5075142;28;20497;-59
2022/09/11 11:53:02;;;;;;;5.93;5.00;;;25.90;99.90;;;;;;5075332;28;20475;-59
2022/09/11 11:55:39;;;;;;;5.20;4.80;;;26.30;99.90;;;;;;5075245;28;20464;-59
2022/09/11 11:58:11;;;;;;;5.20;4.70;;;;;;;;;;5075534;28;20428;-60
2022/09/11 12:00:47;;;;;;;5.00;4.60;;;26.80;98.80;;;;;;5075296;28;20433;-59
2022/09/11 12:03:22;;;;;;;6.10;5.50;;;27.10;99.50;;;;;;5074853;28;20855;-60
2022/09/11 12:05:49;;;;;;;4.87;4.20;;;27.60;97.20;;;;;;5074847;28;20428;-59
2022/09/11 12:08:17;;;;;;;5.47;4.90;;;27.10;96.50;;;;;;5075083;28;20518;-60
2022/09/11 12:10:55;;;;;;;5.60;5.10;;;26.70;96.50;;;;;;5074660;28;20931;-59
2022/09/11 12:13:29;;;;;;;4.70;4.30;;;25.10;97.40;;;;;;5074868;28;20796;-59
2022/09/11 12:16:09;;;;;;;6.63;5.23;;;24.40;99.00;;;;;;5074976;28;20473;-59
2022/09/11 12:18:40;;;;;;;6.30;5.07;;;24.00;99.90;;;;;;5074903;28;20429;-59
2022/09/11 12:21:42;;;;;;;6.13;5.53;;;24.70;99.90;;;;;;5074546;28;20464;-59
2022/09/11 12:24:16;;;;;;;5.20;4.70;;;24.50;98.60;;;;;;5074717;28;20444;-59
2022/09/11 12:26:43;;;;;;;4.50;4.20;;;25.30;99.00;;;;;;5074647;28;20428;-59
2022/09/11 12:29:50;;;;;;;5.63;5.10;;;25.00;99.30;;;;;;5074837;28;20848;-59
2022/09/11 12:32:43;;;;;;;5.63;5.23;;;24.50;99.90;;;;;;5074158;28;20555;-60
2022/09/11 12:35:45;;;;;;;4.63;4.23;;;24.20;99.90;;;;;;5074103;28;20479;-59
2022/09/11 12:38:20;;;;;;;5.83;4.83;;;23.60;99.90;;;;;;5051905;28;20478;-59
2022/09/11 12:40:52;;;;;;;8.03;5.50;;;23.30;99.90;;;;;;5073656;28;20428;-59
2022/09/11 12:43:31;;;;;;;5.90;5.40;;;23.10;99.90;;;;;;5074394;28;20832;-59
2022/09/11 12:45:58;;;;;;;5.10;4.70;;;22.80;99.90;;;;;;5074085;28;20424;-59
2022/09/11 12:48:36;;;;;;;5.83;5.43;;;22.90;99.90;;;;;;5074139;28;20961;-58
2022/09/11 12:51:06;;;;;;;6.40;5.90;;;23.10;99.90;;;;;;5073863;28;20533;-59
2022/09/11 12:53:37;;;;;;;5.00;4.60;;;23.50;99.90;;;;;;5074300;28;20498;-59
2022/09/11 12:56:06;;;;;;;7.10;6.00;;;23.50;99.90;;;;;;5074026;28;20475;-59
2022/09/11 12:58:37;;;;;;;5.57;5.17;;;23.30;99.90;;;;;;5074187;28;20449;-59
2022/09/11 13:01:13;;;;;;;5.90;5.43;;;23.10;99.90;;;;;;5074145;28;20553;-59
2022/09/11 13:03:50;;;;;;;6.97;5.87;;;22.70;99.90;;;;;;5073895;28;20744;-58
2022/09/11 13:06:20;;;;;;;6.60;5.90;;;22.90;99.90;;;;;;5073721;28;20425;-59
2022/09/11 13:08:50;;;;;;;6.80;5.93;;;23.00;99.90;;;;;;5073749;28;20432;-59
2022/09/11 13:11:38;;;;;;;6.40;5.90;;;23.00;99.90;;;;;;5073676;28;20955;-59